Aeroporto :
LOGIN :

Iscrizione | Disclaimer

   EN    FR    IT 

 










Sommario :    VFR   VFR Marginale   IFR   IFR Intensivo   IFR Molto Intensivo
Visibilità : 
Base nubi : 
>= 8 km
>= 3000ft
5 / 8 km
1000 / 3000 ft
1500m / 5 km
500 / 1000 ft
800 / 1500m
200 / 500 ft
< 800m
< 200 ft
Simboli :   Temporali  Nebbia  Neve Forte  Precipitazioni Forti  Vento > 20 kt
SIGMETs :   Varie  Temporali  Ghiacco  Turbolenza  Onda orograficha  Ceneri Vulcaniche






- Altitudine del aeroporto : 741 ft
- Codice IATA : JKG


ESGJ - Jönköping

ULTIMO METAR :
  • 140850Z 18006KT 4000 BR OVC004 03/03 Q1006

METARs OBSOLETI :
  • 140820Z 17004KT 4000 BR OVC005 03/03 Q1005
  • 140750Z 17003KT 3500 BR BKN005 03/03 Q1005
  • 140720Z 21002KT 3500 PRFG BKN007 02/02 Q1004
  • 140650Z 15002KT 3000 BR BKN003 BKN005 02/02 Q1004
  • 140620Z VRB02KT 3000 BKN003 02/02 Q1004

TAF TAF ESGJ
Valido dal 14 a 09 ore il 14 a 18 ore UTC


140830Z 1409/1418 18004KT 1200 BR OVC003
BECMG 1409/1411 7000 NSW SCT013
TEMPO 1411/1415 BKN010
TEMPO 1415/1418 4000 -RA BR SCT030TCU



MetMap, La meteo Aeronautica in un colpo d'occhio ! - Copyright ORBIFLY Dicembre 2007 - Disclaimer

ORBIFLY MET'MAP TEAM :

Programmazione e sviluppo : Alexandra Zaïnal
Concezione e sviluppo : Baudouin d'Aumeries
Co-Programmazione e sviluppo : Marc-Olivier Méhu
Supporto tecnico e logistico : Manuel Goepfert
Aiuto per la traduzione : Arnaldo La Scala

Contatto : metmap@orbifly.com




FONTI E CREDITI :

   NOAA